PSRMK BIKF-BGKK
Flight info
| Callsign | PSRMK |
|---|---|
| Flight time | 3h 15m |
| Altitude | 10000 |
| Route | RALOV3A RALOV DCT SOSIT DCT SABAG |
| Aircraft | C182/L-SDGRY/S |
Departure
| Time | 2026-04-21 14:17 |
|---|---|
| Airport | Keflavik International Airport (BIKF) |
Arrival
| Time | 2026-04-21 17:32 |
|---|---|
| Airport | Kulusuk Airport (BGKK) |
| Time | Latitude | Longitude | Altitude | Speed | Heading |
|---|---|---|---|---|---|
| 2026-04-21 14:12 | 63.97549 | -22.58927 | 166 ft | 0 kts | 112° |
| 2026-04-21 14:14 | 63.97549 | -22.58926 | 166 ft | 1 kts | 115° |
| 2026-04-21 14:14 | 63.97552 | -22.58974 | 167 ft | 7 kts | 292° |
| 2026-04-21 14:14 | 63.97557 | -22.59121 | 169 ft | 13 kts | 188° |
| 2026-04-21 14:14 | 63.97433 | -22.59221 | 168 ft | 25 kts | 202° |
| 2026-04-21 14:15 | 63.97266 | -22.59368 | 164 ft | 25 kts | 206° |
| 2026-04-21 14:15 | 63.97231 | -22.59532 | 164 ft | 11 kts | 298° |
| 2026-04-21 14:15 | 63.97262 | -22.59708 | 164 ft | 14 kts | 292° |
| 2026-04-21 14:15 | 63.97308 | -22.59962 | 164 ft | 21 kts | 289° |
| 2026-04-21 14:16 | 63.97378 | -22.60339 | 165 ft | 28 kts | 295° |
| 2026-04-21 14:16 | 63.97439 | -22.60548 | 167 ft | 16 kts | 2° |
| 2026-04-21 14:16 | 63.97659 | -22.60540 | 167 ft | 57 kts | 0° |
| 2026-04-21 14:16 | 63.98202 | -22.60560 | 240 ft | 89 kts | 359° |
| 2026-04-21 14:17 | 63.98814 | -22.60571 | 567 ft | 86 kts | 1° |
| 2026-04-21 14:17 | 63.99407 | -22.60563 | 922 ft | 86 kts | 358° |
| 2026-04-21 14:17 | 64.00009 | -22.60566 | 1157 ft | 94 kts | 355° |
| 2026-04-21 14:17 | 64.00694 | -22.60563 | 1425 ft | 101 kts | 355° |
| 2026-04-21 14:18 | 64.01410 | -22.60558 | 1733 ft | 101 kts | 356° |
| 2026-04-21 14:18 | 64.02080 | -22.60551 | 2033 ft | 91 kts | 355° |
| 2026-04-21 14:18 | 64.02711 | -22.60553 | 2257 ft | 92 kts | 355° |
| 2026-04-21 14:18 | 64.03355 | -22.60554 | 2465 ft | 93 kts | 356° |
| 2026-04-21 14:19 | 64.03997 | -22.60552 | 2671 ft | 94 kts | 356° |
| 2026-04-21 14:19 | 64.04663 | -22.60552 | 2882 ft | 96 kts | 356° |
| 2026-04-21 14:19 | 64.05338 | -22.60555 | 3090 ft | 97 kts | 354° |
| 2026-04-21 14:19 | 64.05945 | -22.61079 | 3303 ft | 93 kts | 317° |
| 2026-04-21 14:20 | 64.06286 | -22.62287 | 3507 ft | 91 kts | 285° |
| 2026-04-21 14:20 | 64.06316 | -22.63744 | 3717 ft | 93 kts | 270° |
| 2026-04-21 14:20 | 64.06321 | -22.65233 | 3931 ft | 94 kts | 270° |
| 2026-04-21 14:20 | 64.06322 | -22.66739 | 4132 ft | 95 kts | 270° |
| 2026-04-21 14:21 | 64.06322 | -22.68254 | 4341 ft | 95 kts | 270° |
| 2026-04-21 14:21 | 64.06321 | -22.69772 | 4546 ft | 96 kts | 270° |
| 2026-04-21 14:21 | 64.06320 | -22.71310 | 4752 ft | 97 kts | 270° |
| 2026-04-21 14:21 | 64.06319 | -22.72831 | 4960 ft | 97 kts | 270° |
| 2026-04-21 14:22 | 64.06317 | -22.74388 | 5170 ft | 97 kts | 270° |
| 2026-04-21 14:22 | 64.06316 | -22.75897 | 5376 ft | 96 kts | 270° |
| 2026-04-21 14:22 | 64.06314 | -22.77427 | 5579 ft | 96 kts | 270° |
| 2026-04-21 14:22 | 64.06312 | -22.78957 | 5780 ft | 96 kts | 269° |
| 2026-04-21 14:23 | 64.06309 | -22.80486 | 5982 ft | 97 kts | 269° |
| 2026-04-21 14:23 | 64.06307 | -22.82023 | 6183 ft | 97 kts | 269° |
| 2026-04-21 14:23 | 64.06304 | -22.83557 | 6386 ft | 97 kts | 269° |
| 2026-04-21 14:23 | 64.06301 | -22.85106 | 6592 ft | 97 kts | 269° |
| 2026-04-21 14:24 | 64.06298 | -22.86654 | 6798 ft | 98 kts | 269° |
| 2026-04-21 14:24 | 64.06295 | -22.88209 | 7006 ft | 98 kts | 269° |
| 2026-04-21 14:24 | 64.06292 | -22.89771 | 7207 ft | 98 kts | 269° |
| 2026-04-21 14:24 | 64.06288 | -22.91337 | 7402 ft | 99 kts | 269° |
| 2026-04-21 14:25 | 64.06285 | -22.92911 | 7596 ft | 99 kts | 269° |
| 2026-04-21 14:25 | 64.06281 | -22.94493 | 7792 ft | 100 kts | 269° |
| 2026-04-21 14:25 | 64.06277 | -22.96057 | 7985 ft | 100 kts | 269° |
| 2026-04-21 14:25 | 64.06273 | -22.97650 | 8187 ft | 101 kts | 269° |
| 2026-04-21 14:26 | 64.06268 | -22.99256 | 8383 ft | 101 kts | 269° |
| 2026-04-21 14:26 | 64.06264 | -23.00865 | 8584 ft | 102 kts | 269° |
| 2026-04-21 14:26 | 64.06259 | -23.02481 | 8788 ft | 102 kts | 269° |
| 2026-04-21 14:26 | 64.06254 | -23.04102 | 8990 ft | 102 kts | 269° |
| 2026-04-21 14:27 | 64.06249 | -23.05728 | 9197 ft | 103 kts | 269° |
| 2026-04-21 14:27 | 64.06244 | -23.07363 | 9401 ft | 103 kts | 269° |
| 2026-04-21 14:27 | 64.06238 | -23.09002 | 9609 ft | 103 kts | 269° |
| 2026-04-21 14:27 | 64.06232 | -23.10650 | 9818 ft | 104 kts | 269° |
| 2026-04-21 14:28 | 64.06226 | -23.12276 | 10024 ft | 104 kts | 269° |
| 2026-04-21 14:28 | 64.06220 | -23.13951 | 10238 ft | 104 kts | 269° |
| 2026-04-21 14:28 | 64.06214 | -23.15588 | 10444 ft | 104 kts | 269° |
| 2026-04-21 14:28 | 64.06208 | -23.17249 | 10653 ft | 105 kts | 268° |
| 2026-04-21 14:29 | 64.06202 | -23.18964 | 10744 ft | 114 kts | 269° |
| 2026-04-21 14:29 | 64.06197 | -23.20835 | 10755 ft | 121 kts | 269° |
| 2026-04-21 14:29 | 64.06190 | -23.22809 | 10752 ft | 126 kts | 269° |
| 2026-04-21 14:29 | 64.06182 | -23.24845 | 10756 ft | 129 kts | 269° |
| 2026-04-21 14:30 | 64.06174 | -23.26921 | 10750 ft | 132 kts | 269° |
| 2026-04-21 14:30 | 64.06165 | -23.29023 | 10751 ft | 133 kts | 269° |
| 2026-04-21 14:30 | 64.06156 | -23.31140 | 10755 ft | 133 kts | 269° |
| 2026-04-21 14:30 | 64.06146 | -23.33264 | 10757 ft | 134 kts | 269° |
| 2026-04-21 14:31 | 64.06136 | -23.35387 | 10756 ft | 134 kts | 269° |
| 2026-04-21 14:31 | 64.06126 | -23.37517 | 10760 ft | 134 kts | 269° |
| 2026-04-21 14:31 | 64.06115 | -23.39644 | 10759 ft | 134 kts | 269° |
| 2026-04-21 14:31 | 64.06104 | -23.41748 | 10762 ft | 134 kts | 269° |
| 2026-04-21 14:32 | 64.06093 | -23.43877 | 10759 ft | 134 kts | 269° |
| 2026-04-21 14:32 | 64.06081 | -23.46008 | 10757 ft | 134 kts | 269° |
| 2026-04-21 14:32 | 64.06069 | -23.48142 | 10758 ft | 134 kts | 269° |
| 2026-04-21 14:32 | 64.06056 | -23.50274 | 10759 ft | 134 kts | 269° |
| 2026-04-21 14:33 | 64.06044 | -23.52405 | 10760 ft | 134 kts | 268° |
| 2026-04-21 14:33 | 64.06031 | -23.54532 | 10759 ft | 134 kts | 268° |
| 2026-04-21 14:33 | 64.06022 | -23.55944 | 10761 ft | 134 kts | 268° |
| 2026-04-21 14:33 | 64.06004 | -23.58792 | 10758 ft | 134 kts | 268° |
| 2026-04-21 14:34 | 64.05990 | -23.60922 | 10759 ft | 134 kts | 268° |
| 2026-04-21 14:34 | 64.05976 | -23.63049 | 10760 ft | 134 kts | 268° |
| 2026-04-21 14:34 | 64.05966 | -23.64459 | 10759 ft | 134 kts | 268° |
| 2026-04-21 14:34 | 64.05952 | -23.66586 | 10761 ft | 134 kts | 268° |
| 2026-04-21 14:35 | 64.05931 | -23.69406 | 10759 ft | 135 kts | 268° |
| 2026-04-21 14:35 | 64.05921 | -23.70851 | 10759 ft | 135 kts | 268° |
| 2026-04-21 14:35 | 64.05906 | -23.72981 | 10757 ft | 134 kts | 268° |
| 2026-04-21 14:35 | 64.05890 | -23.75115 | 10755 ft | 134 kts | 268° |
| 2026-04-21 14:36 | 64.05873 | -23.77213 | 10755 ft | 134 kts | 268° |
| 2026-04-21 14:36 | 64.05857 | -23.79341 | 10757 ft | 134 kts | 268° |
| 2026-04-21 14:36 | 64.05840 | -23.81461 | 10757 ft | 134 kts | 268° |
| 2026-04-21 14:36 | 64.05823 | -23.83587 | 10756 ft | 133 kts | 268° |
| 2026-04-21 14:37 | 64.05805 | -23.85704 | 10755 ft | 133 kts | 268° |
| 2026-04-21 14:37 | 64.05787 | -23.87824 | 10757 ft | 133 kts | 268° |
| 2026-04-21 14:37 | 64.05769 | -23.89943 | 10755 ft | 133 kts | 268° |
| 2026-04-21 14:37 | 64.05569 | -23.91980 | 10754 ft | 132 kts | 246° |
| 2026-04-21 14:38 | 64.05213 | -23.93911 | 10753 ft | 132 kts | 248° |
| 2026-04-21 14:38 | 64.04869 | -23.95858 | 10752 ft | 132 kts | 248° |
| 2026-04-21 14:38 | 64.04527 | -23.97784 | 10751 ft | 133 kts | 248° |
| 2026-04-21 14:38 | 64.04179 | -23.99734 | 10753 ft | 133 kts | 248° |
| 2026-04-21 14:39 | 64.03831 | -24.01684 | 10754 ft | 133 kts | 248° |
| 2026-04-21 14:39 | 64.03482 | -24.03637 | 10755 ft | 133 kts | 248° |
| 2026-04-21 14:39 | 64.03133 | -24.05585 | 10754 ft | 133 kts | 248° |
| 2026-04-21 14:39 | 64.02784 | -24.07535 | 10756 ft | 133 kts | 248° |
| 2026-04-21 14:40 | 64.02435 | -24.09485 | 10755 ft | 133 kts | 248° |
| 2026-04-21 14:40 | 64.02086 | -24.11428 | 10757 ft | 132 kts | 248° |
| 2026-04-21 14:40 | 64.01736 | -24.13377 | 10756 ft | 132 kts | 248° |
| 2026-04-21 14:40 | 64.01386 | -24.15322 | 10753 ft | 132 kts | 248° |
| 2026-04-21 14:41 | 64.01037 | -24.17264 | 10755 ft | 132 kts | 248° |
| 2026-04-21 14:41 | 64.00688 | -24.19204 | 10753 ft | 132 kts | 248° |
| 2026-04-21 14:41 | 64.00342 | -24.21118 | 10751 ft | 132 kts | 248° |
| 2026-04-21 14:41 | 63.99993 | -24.23053 | 10751 ft | 132 kts | 248° |
| 2026-04-21 14:42 | 63.99643 | -24.24991 | 10756 ft | 132 kts | 248° |
| 2026-04-21 14:42 | 63.99293 | -24.26926 | 10755 ft | 132 kts | 248° |
| 2026-04-21 14:42 | 63.98943 | -24.28860 | 10754 ft | 132 kts | 248° |
| 2026-04-21 14:42 | 63.98592 | -24.30797 | 10755 ft | 132 kts | 248° |
| 2026-04-21 14:43 | 63.98241 | -24.32733 | 10753 ft | 132 kts | 248° |
| 2026-04-21 14:43 | 63.97889 | -24.34671 | 10756 ft | 132 kts | 248° |
| 2026-04-21 14:43 | 63.97536 | -24.36611 | 10754 ft | 132 kts | 248° |
| 2026-04-21 14:43 | 63.97183 | -24.38551 | 10760 ft | 132 kts | 248° |
| 2026-04-21 14:44 | 63.96831 | -24.40487 | 10757 ft | 132 kts | 248° |
| 2026-04-21 14:44 | 63.96477 | -24.42426 | 10759 ft | 132 kts | 248° |
| 2026-04-21 14:44 | 63.96124 | -24.44365 | 10760 ft | 132 kts | 248° |
| 2026-04-21 14:44 | 63.95771 | -24.46297 | 10755 ft | 132 kts | 248° |
| 2026-04-21 14:45 | 63.95417 | -24.48229 | 10754 ft | 132 kts | 247° |
| 2026-04-21 14:45 | 63.95064 | -24.50160 | 10756 ft | 132 kts | 248° |
| 2026-04-21 14:45 | 63.94714 | -24.52067 | 10755 ft | 132 kts | 247° |
| 2026-04-21 14:45 | 63.94360 | -24.54001 | 10761 ft | 132 kts | 248° |
| 2026-04-21 14:46 | 63.94005 | -24.55934 | 10759 ft | 132 kts | 247° |
| 2026-04-21 14:46 | 63.93651 | -24.57863 | 10757 ft | 132 kts | 247° |
| 2026-04-21 14:46 | 63.93296 | -24.59793 | 10757 ft | 132 kts | 247° |
| 2026-04-21 14:46 | 63.92940 | -24.61729 | 10756 ft | 133 kts | 248° |
| 2026-04-21 14:47 | 63.92584 | -24.63661 | 10754 ft | 133 kts | 247° |
| 2026-04-21 14:47 | 63.92227 | -24.65593 | 10757 ft | 132 kts | 247° |
| 2026-04-21 14:47 | 63.91871 | -24.67524 | 10757 ft | 132 kts | 247° |
| 2026-04-21 14:47 | 63.91514 | -24.69453 | 10759 ft | 132 kts | 247° |
| 2026-04-21 14:48 | 63.91158 | -24.71379 | 10759 ft | 132 kts | 247° |
| 2026-04-21 14:48 | 63.90801 | -24.73308 | 10756 ft | 132 kts | 247° |
| 2026-04-21 14:48 | 63.90444 | -24.75234 | 10758 ft | 132 kts | 247° |
| 2026-04-21 14:48 | 63.90087 | -24.77158 | 10760 ft | 132 kts | 247° |
| 2026-04-21 14:49 | 63.89734 | -24.79058 | 10764 ft | 132 kts | 247° |
| 2026-04-21 14:49 | 63.89377 | -24.80981 | 10765 ft | 132 kts | 247° |
| 2026-04-21 14:49 | 63.89018 | -24.82907 | 10763 ft | 133 kts | 247° |
| 2026-04-21 14:49 | 63.88659 | -24.84837 | 10757 ft | 132 kts | 247° |
| 2026-04-21 14:50 | 63.88484 | -24.86863 | 10754 ft | 133 kts | 271° |
| 2026-04-21 14:50 | 63.88723 | -24.88881 | 10756 ft | 134 kts | 293° |
| 2026-04-21 14:50 | 63.89128 | -24.90788 | 10757 ft | 134 kts | 292° |
| 2026-04-21 14:50 | 63.89520 | -24.92704 | 10749 ft | 134 kts | 292° |
| 2026-04-21 14:51 | 63.89916 | -24.94630 | 10750 ft | 134 kts | 292° |
| 2026-04-21 14:51 | 63.90311 | -24.96551 | 10754 ft | 134 kts | 292° |
| 2026-04-21 14:51 | 63.90705 | -24.98473 | 10757 ft | 134 kts | 292° |
| 2026-04-21 14:51 | 63.91100 | -25.00399 | 10757 ft | 134 kts | 292° |
| 2026-04-21 14:52 | 63.91494 | -25.02324 | 10753 ft | 134 kts | 292° |
| 2026-04-21 14:52 | 63.91888 | -25.04252 | 10754 ft | 134 kts | 292° |
| 2026-04-21 14:52 | 63.92281 | -25.06174 | 10753 ft | 134 kts | 292° |
| 2026-04-21 14:52 | 63.92674 | -25.08100 | 10754 ft | 134 kts | 292° |
| 2026-04-21 14:53 | 63.93066 | -25.10022 | 10756 ft | 134 kts | 292° |
| 2026-04-21 14:53 | 63.93458 | -25.11947 | 10752 ft | 134 kts | 292° |
| 2026-04-21 14:53 | 63.93845 | -25.13849 | 10757 ft | 134 kts | 292° |
| 2026-04-21 14:53 | 63.94237 | -25.15776 | 10757 ft | 134 kts | 292° |
| 2026-04-21 14:54 | 63.94629 | -25.17704 | 10755 ft | 134 kts | 292° |
| 2026-04-21 14:54 | 63.95022 | -25.19638 | 10759 ft | 134 kts | 292° |
| 2026-04-21 14:54 | 63.95414 | -25.21571 | 10756 ft | 135 kts | 292° |
| 2026-04-21 14:54 | 63.95806 | -25.23508 | 10754 ft | 134 kts | 292° |
| 2026-04-21 14:55 | 63.96198 | -25.25445 | 10758 ft | 134 kts | 292° |
| 2026-04-21 14:55 | 63.96589 | -25.27376 | 10756 ft | 134 kts | 292° |
| 2026-04-21 14:55 | 63.96980 | -25.29310 | 10756 ft | 134 kts | 292° |
| 2026-04-21 14:55 | 63.97369 | -25.31241 | 10761 ft | 134 kts | 292° |
| 2026-04-21 14:56 | 63.97754 | -25.33147 | 10756 ft | 134 kts | 292° |
| 2026-04-21 14:56 | 63.98144 | -25.35082 | 10753 ft | 134 kts | 292° |
| 2026-04-21 14:56 | 63.98532 | -25.37009 | 10753 ft | 134 kts | 292° |
| 2026-04-21 14:56 | 63.98920 | -25.38942 | 10753 ft | 134 kts | 292° |
| 2026-04-21 14:57 | 63.99309 | -25.40875 | 10756 ft | 134 kts | 292° |
| 2026-04-21 14:57 | 63.99697 | -25.42811 | 10755 ft | 134 kts | 291° |
| 2026-04-21 14:57 | 64.00084 | -25.44738 | 10754 ft | 134 kts | 292° |
| 2026-04-21 14:57 | 64.00471 | -25.46668 | 10755 ft | 134 kts | 292° |
| 2026-04-21 14:58 | 64.00857 | -25.48598 | 10752 ft | 134 kts | 291° |
| 2026-04-21 14:58 | 64.01244 | -25.50535 | 10753 ft | 134 kts | 291° |
| 2026-04-21 14:58 | 64.01625 | -25.52443 | 10752 ft | 134 kts | 291° |
| 2026-04-21 14:58 | 64.02011 | -25.54375 | 10751 ft | 134 kts | 291° |
| 2026-04-21 14:59 | 64.02396 | -25.56303 | 10751 ft | 134 kts | 291° |
| 2026-04-21 14:59 | 64.02781 | -25.58238 | 10750 ft | 134 kts | 291° |
| 2026-04-21 14:59 | 64.03166 | -25.60169 | 10749 ft | 134 kts | 291° |
| 2026-04-21 14:59 | 64.03550 | -25.62102 | 10751 ft | 134 kts | 291° |
| 2026-04-21 15:00 | 64.03934 | -25.64039 | 10749 ft | 134 kts | 291° |
| 2026-04-21 15:00 | 64.04319 | -25.65976 | 10749 ft | 134 kts | 291° |
| 2026-04-21 15:00 | 64.04703 | -25.67910 | 10743 ft | 134 kts | 291° |
| 2026-04-21 15:00 | 64.05086 | -25.69844 | 10747 ft | 134 kts | 291° |
| 2026-04-21 15:01 | 64.05469 | -25.71778 | 10754 ft | 133 kts | 291° |
| 2026-04-21 15:01 | 64.05850 | -25.73708 | 10754 ft | 133 kts | 291° |
| 2026-04-21 15:01 | 64.06232 | -25.75642 | 10753 ft | 134 kts | 291° |
| 2026-04-21 15:01 | 64.06609 | -25.77549 | 10748 ft | 134 kts | 291° |
| 2026-04-21 15:02 | 64.06990 | -25.79484 | 10752 ft | 134 kts | 291° |
| 2026-04-21 15:02 | 64.07373 | -25.81425 | 10746 ft | 134 kts | 291° |
| 2026-04-21 15:02 | 64.07754 | -25.83361 | 10753 ft | 134 kts | 291° |
| 2026-04-21 15:02 | 64.08134 | -25.85296 | 10748 ft | 133 kts | 291° |
| 2026-04-21 15:03 | 64.08515 | -25.87235 | 10746 ft | 133 kts | 291° |
| 2026-04-21 15:03 | 64.08895 | -25.89172 | 10747 ft | 133 kts | 291° |
| 2026-04-21 15:03 | 64.09273 | -25.91101 | 10748 ft | 133 kts | 291° |
| 2026-04-21 15:03 | 64.09653 | -25.93038 | 10748 ft | 133 kts | 291° |
| 2026-04-21 15:04 | 64.10032 | -25.94973 | 10744 ft | 134 kts | 291° |
| 2026-04-21 15:04 | 64.10406 | -25.96887 | 10746 ft | 133 kts | 291° |
| 2026-04-21 15:04 | 64.10785 | -25.98828 | 10749 ft | 133 kts | 291° |
| 2026-04-21 15:04 | 64.11163 | -26.00764 | 10740 ft | 133 kts | 290° |
| 2026-04-21 15:05 | 64.11540 | -26.02702 | 10738 ft | 133 kts | 290° |
| 2026-04-21 15:05 | 64.12294 | -26.06574 | 10736 ft | 133 kts | 290° |
| 2026-04-21 15:05 | 64.12670 | -26.08509 | 10742 ft | 133 kts | 290° |
| 2026-04-21 15:06 | 64.13046 | -26.10444 | 10739 ft | 133 kts | 290° |
| 2026-04-21 15:06 | 64.13422 | -26.12383 | 10740 ft | 133 kts | 290° |
| 2026-04-21 15:06 | 64.13797 | -26.14318 | 10738 ft | 133 kts | 290° |
| 2026-04-21 15:06 | 64.14173 | -26.16256 | 10739 ft | 133 kts | 290° |
| 2026-04-21 15:07 | 64.14548 | -26.18198 | 10738 ft | 133 kts | 290° |
| 2026-04-21 15:07 | 64.14923 | -26.20137 | 10742 ft | 133 kts | 290° |
| 2026-04-21 15:07 | 64.15297 | -26.22075 | 10741 ft | 133 kts | 290° |
| 2026-04-21 15:07 | 64.15671 | -26.24013 | 10741 ft | 133 kts | 290° |
| 2026-04-21 15:08 | 64.16045 | -26.25955 | 10739 ft | 133 kts | 290° |
| 2026-04-21 15:08 | 64.16419 | -26.27895 | 10748 ft | 133 kts | 290° |
| 2026-04-21 15:08 | 64.16787 | -26.29809 | 10745 ft | 133 kts | 290° |
| 2026-04-21 15:08 | 64.17160 | -26.31748 | 10745 ft | 133 kts | 290° |
| 2026-04-21 15:09 | 64.17532 | -26.33689 | 10745 ft | 133 kts | 290° |
| 2026-04-21 15:09 | 64.17904 | -26.35628 | 10738 ft | 133 kts | 290° |
| 2026-04-21 15:09 | 64.18276 | -26.37569 | 10746 ft | 133 kts | 290° |
| 2026-04-21 15:09 | 64.18647 | -26.39508 | 10739 ft | 133 kts | 290° |
| 2026-04-21 15:10 | 64.19019 | -26.41451 | 10740 ft | 133 kts | 290° |
| 2026-04-21 15:10 | 64.19390 | -26.43394 | 10738 ft | 133 kts | 290° |
| 2026-04-21 15:10 | 64.19761 | -26.45336 | 10736 ft | 133 kts | 290° |
| 2026-04-21 15:10 | 64.20131 | -26.47275 | 10736 ft | 133 kts | 290° |
| 2026-04-21 15:11 | 64.20501 | -26.49218 | 10737 ft | 133 kts | 290° |
| 2026-04-21 15:11 | 64.20871 | -26.51161 | 10739 ft | 133 kts | 290° |
| 2026-04-21 15:11 | 64.21241 | -26.53107 | 10735 ft | 133 kts | 290° |
| 2026-04-21 15:11 | 64.21611 | -26.55056 | 10744 ft | 133 kts | 290° |
| 2026-04-21 15:12 | 64.21980 | -26.57002 | 10738 ft | 133 kts | 290° |
| 2026-04-21 15:12 | 64.22345 | -26.58925 | 10744 ft | 133 kts | 290° |
| 2026-04-21 15:12 | 64.22714 | -26.60873 | 10742 ft | 133 kts | 290° |
| 2026-04-21 15:12 | 64.23083 | -26.62825 | 10742 ft | 133 kts | 290° |
| 2026-04-21 15:13 | 64.23450 | -26.64767 | 10737 ft | 133 kts | 290° |
| 2026-04-21 15:13 | 64.23818 | -26.66712 | 10734 ft | 132 kts | 290° |
| 2026-04-21 15:13 | 64.24185 | -26.68656 | 10738 ft | 132 kts | 290° |
| 2026-04-21 15:13 | 64.24551 | -26.70600 | 10737 ft | 132 kts | 289° |
| 2026-04-21 15:14 | 64.24917 | -26.72542 | 10744 ft | 133 kts | 290° |
| 2026-04-21 15:14 | 64.25283 | -26.74488 | 10737 ft | 133 kts | 289° |
| 2026-04-21 15:14 | 64.25649 | -26.76437 | 10734 ft | 133 kts | 289° |
| 2026-04-21 15:14 | 64.26014 | -26.78381 | 10738 ft | 132 kts | 289° |
| 2026-04-21 15:15 | 64.26379 | -26.80328 | 10741 ft | 132 kts | 289° |
| 2026-04-21 15:15 | 64.26743 | -26.82269 | 10738 ft | 132 kts | 289° |
| 2026-04-21 15:15 | 64.27107 | -26.84214 | 10739 ft | 132 kts | 289° |
| 2026-04-21 15:15 | 64.27471 | -26.86162 | 10741 ft | 132 kts | 289° |
| 2026-04-21 15:16 | 64.27835 | -26.88108 | 10739 ft | 132 kts | 289° |
| 2026-04-21 15:16 | 64.28194 | -26.90027 | 10738 ft | 132 kts | 289° |
| 2026-04-21 15:16 | 64.28556 | -26.91969 | 10736 ft | 132 kts | 289° |
| 2026-04-21 15:16 | 64.28918 | -26.93914 | 10742 ft | 132 kts | 289° |
| 2026-04-21 15:17 | 64.29280 | -26.95858 | 10741 ft | 132 kts | 289° |
| 2026-04-21 15:17 | 64.29642 | -26.97807 | 10739 ft | 132 kts | 289° |
| 2026-04-21 15:17 | 64.30004 | -26.99752 | 10742 ft | 132 kts | 289° |
| 2026-04-21 15:17 | 64.30365 | -27.01698 | 10739 ft | 132 kts | 289° |
| 2026-04-21 15:18 | 64.30726 | -27.03645 | 10737 ft | 132 kts | 289° |
| 2026-04-21 15:18 | 64.31086 | -27.05592 | 10737 ft | 132 kts | 289° |
| 2026-04-21 15:18 | 64.31448 | -27.07546 | 10739 ft | 132 kts | 289° |
| 2026-04-21 15:18 | 64.31803 | -27.09469 | 10741 ft | 132 kts | 289° |
| 2026-04-21 15:19 | 64.32167 | -27.11438 | 10737 ft | 132 kts | 289° |
| 2026-04-21 15:19 | 64.32523 | -27.13365 | 10737 ft | 132 kts | 289° |
| 2026-04-21 15:19 | 64.32881 | -27.15312 | 10739 ft | 132 kts | 289° |
| 2026-04-21 15:19 | 64.33240 | -27.17260 | 10736 ft | 132 kts | 289° |
| 2026-04-21 15:20 | 64.33599 | -27.19209 | 10738 ft | 132 kts | 289° |
| 2026-04-21 15:20 | 64.33956 | -27.21153 | 10735 ft | 132 kts | 289° |
| 2026-04-21 15:20 | 64.34312 | -27.23093 | 10733 ft | 131 kts | 289° |
| 2026-04-21 15:20 | 64.34669 | -27.25038 | 10738 ft | 131 kts | 289° |
| 2026-04-21 15:21 | 64.35025 | -27.26982 | 10741 ft | 132 kts | 289° |
| 2026-04-21 15:21 | 64.35382 | -27.28930 | 10739 ft | 132 kts | 289° |
| 2026-04-21 15:21 | 64.35733 | -27.30850 | 10737 ft | 132 kts | 289° |
| 2026-04-21 15:21 | 64.36089 | -27.32799 | 10730 ft | 132 kts | 289° |
| 2026-04-21 15:22 | 64.36444 | -27.34746 | 10733 ft | 132 kts | 289° |
| 2026-04-21 15:22 | 64.36799 | -27.36693 | 10728 ft | 131 kts | 289° |
| 2026-04-21 15:22 | 64.37153 | -27.38637 | 10730 ft | 131 kts | 289° |
| 2026-04-21 15:22 | 64.37507 | -27.40579 | 10729 ft | 131 kts | 289° |
| 2026-04-21 15:23 | 64.37861 | -27.42527 | 10729 ft | 131 kts | 289° |
| 2026-04-21 15:23 | 64.38095 | -27.43816 | 10730 ft | 131 kts | 289° |
| 2026-04-21 15:23 | 64.38448 | -27.45758 | 10729 ft | 131 kts | 289° |
| 2026-04-21 15:23 | 64.38801 | -27.47704 | 10733 ft | 131 kts | 289° |
| 2026-04-21 15:24 | 64.39153 | -27.49651 | 10732 ft | 131 kts | 289° |
| 2026-04-21 15:24 | 64.39505 | -27.51596 | 10730 ft | 131 kts | 289° |
| 2026-04-21 15:24 | 64.39857 | -27.53542 | 10731 ft | 131 kts | 289° |
| 2026-04-21 15:24 | 64.40208 | -27.55488 | 10731 ft | 131 kts | 289° |
| 2026-04-21 15:25 | 64.40560 | -27.57434 | 10732 ft | 131 kts | 288° |
| 2026-04-21 15:25 | 64.40911 | -27.59383 | 10728 ft | 131 kts | 288° |
| 2026-04-21 15:25 | 64.41262 | -27.61330 | 10733 ft | 131 kts | 288° |
| 2026-04-21 15:25 | 64.41612 | -27.63278 | 10731 ft | 131 kts | 288° |
| 2026-04-21 15:26 | 64.41962 | -27.65227 | 10730 ft | 131 kts | 288° |
| 2026-04-21 15:26 | 64.42312 | -27.67172 | 10729 ft | 131 kts | 288° |
| 2026-04-21 15:26 | 64.42660 | -27.69117 | 10732 ft | 131 kts | 288° |
| 2026-04-21 15:26 | 64.43009 | -27.71061 | 10732 ft | 131 kts | 288° |
| 2026-04-21 15:27 | 64.43357 | -27.73003 | 10732 ft | 131 kts | 288° |
| 2026-04-21 15:27 | 64.43705 | -27.74954 | 10729 ft | 131 kts | 288° |
| 2026-04-21 15:27 | 64.44052 | -27.76895 | 10734 ft | 131 kts | 288° |
| 2026-04-21 15:27 | 64.44400 | -27.78843 | 10731 ft | 131 kts | 288° |
| 2026-04-21 15:28 | 64.44747 | -27.80789 | 10730 ft | 131 kts | 288° |
| 2026-04-21 15:28 | 64.45093 | -27.82733 | 10731 ft | 131 kts | 288° |
| 2026-04-21 15:28 | 64.45439 | -27.84677 | 10732 ft | 131 kts | 288° |
| 2026-04-21 15:28 | 64.45785 | -27.86623 | 10730 ft | 131 kts | 288° |
| 2026-04-21 15:29 | 64.46131 | -27.88571 | 10730 ft | 131 kts | 288° |
| 2026-04-21 15:29 | 64.46476 | -27.90518 | 10729 ft | 131 kts | 288° |
| 2026-04-21 15:29 | 64.46822 | -27.92467 | 10731 ft | 131 kts | 288° |
| 2026-04-21 15:29 | 64.47163 | -27.94394 | 10730 ft | 131 kts | 288° |
| 2026-04-21 15:30 | 64.47507 | -27.96342 | 10729 ft | 131 kts | 288° |
| 2026-04-21 15:30 | 64.47852 | -27.98291 | 10728 ft | 131 kts | 288° |
| 2026-04-21 15:30 | 64.48196 | -28.00240 | 10730 ft | 130 kts | 288° |
| 2026-04-21 15:30 | 64.48539 | -28.02188 | 10732 ft | 130 kts | 288° |
| 2026-04-21 15:31 | 64.48883 | -28.04136 | 10731 ft | 130 kts | 288° |
| 2026-04-21 15:31 | 64.49225 | -28.06081 | 10729 ft | 130 kts | 288° |
| 2026-04-21 15:31 | 64.49567 | -28.08028 | 10731 ft | 130 kts | 288° |
| 2026-04-21 15:31 | 64.49909 | -28.09975 | 10732 ft | 130 kts | 288° |
| 2026-04-21 15:32 | 64.50251 | -28.11924 | 10728 ft | 130 kts | 288° |
| 2026-04-21 15:32 | 64.50593 | -28.13873 | 10728 ft | 130 kts | 288° |
| 2026-04-21 15:32 | 64.50934 | -28.15818 | 10731 ft | 130 kts | 288° |
| 2026-04-21 15:32 | 64.51275 | -28.17769 | 10729 ft | 130 kts | 288° |
| 2026-04-21 15:33 | 64.51615 | -28.19714 | 10726 ft | 130 kts | 288° |
| 2026-04-21 15:33 | 64.51955 | -28.21660 | 10725 ft | 130 kts | 288° |
| 2026-04-21 15:33 | 64.52294 | -28.23603 | 10725 ft | 130 kts | 288° |
| 2026-04-21 15:33 | 64.52628 | -28.25525 | 10726 ft | 130 kts | 288° |
| 2026-04-21 15:34 | 64.52967 | -28.27470 | 10727 ft | 130 kts | 288° |
| 2026-04-21 15:34 | 64.53310 | -28.29441 | 10727 ft | 130 kts | 288° |
| 2026-04-21 15:34 | 64.53644 | -28.31366 | 10723 ft | 130 kts | 288° |
| 2026-04-21 15:34 | 64.53983 | -28.33318 | 10728 ft | 130 kts | 288° |
| 2026-04-21 15:35 | 64.54320 | -28.35265 | 10724 ft | 130 kts | 288° |
| 2026-04-21 15:35 | 64.54659 | -28.37218 | 10725 ft | 130 kts | 288° |
| 2026-04-21 15:35 | 64.54996 | -28.39167 | 10723 ft | 130 kts | 287° |
| 2026-04-21 15:35 | 64.55332 | -28.41113 | 10726 ft | 130 kts | 287° |
| 2026-04-21 15:36 | 64.55669 | -28.43060 | 10726 ft | 130 kts | 287° |
| 2026-04-21 15:36 | 64.56005 | -28.45013 | 10726 ft | 130 kts | 287° |
| 2026-04-21 15:36 | 64.56342 | -28.46964 | 10724 ft | 130 kts | 287° |
| 2026-04-21 15:36 | 64.56678 | -28.48917 | 10723 ft | 130 kts | 287° |
| 2026-04-21 15:37 | 64.57013 | -28.50864 | 10724 ft | 130 kts | 287° |
| 2026-04-21 15:37 | 64.57348 | -28.52814 | 10726 ft | 130 kts | 287° |
| 2026-04-21 15:37 | 64.57679 | -28.54744 | 10723 ft | 130 kts | 287° |
| 2026-04-21 15:37 | 64.58014 | -28.56699 | 10726 ft | 130 kts | 287° |
| 2026-04-21 15:38 | 64.58348 | -28.58651 | 10721 ft | 130 kts | 287° |
| 2026-04-21 15:38 | 64.58682 | -28.60602 | 10721 ft | 130 kts | 287° |
| 2026-04-21 15:38 | 64.59016 | -28.62553 | 10721 ft | 130 kts | 287° |
| 2026-04-21 15:38 | 64.59350 | -28.64510 | 10718 ft | 130 kts | 287° |
| 2026-04-21 15:39 | 64.59683 | -28.66459 | 10724 ft | 130 kts | 287° |
| 2026-04-21 15:39 | 64.60016 | -28.68416 | 10717 ft | 130 kts | 287° |
| 2026-04-21 15:39 | 64.60348 | -28.70366 | 10721 ft | 129 kts | 287° |
| 2026-04-21 15:39 | 64.60680 | -28.72317 | 10719 ft | 129 kts | 287° |
| 2026-04-21 15:40 | 64.61011 | -28.74269 | 10717 ft | 129 kts | 287° |
| 2026-04-21 15:40 | 64.61338 | -28.76193 | 10720 ft | 129 kts | 287° |
| 2026-04-21 15:40 | 64.61668 | -28.78142 | 10720 ft | 129 kts | 287° |
| 2026-04-21 15:40 | 64.61999 | -28.80095 | 10723 ft | 130 kts | 287° |
| 2026-04-21 15:41 | 64.62331 | -28.82054 | 10723 ft | 130 kts | 287° |
| 2026-04-21 15:41 | 64.62661 | -28.84007 | 10720 ft | 130 kts | 287° |
| 2026-04-21 15:41 | 64.62990 | -28.85958 | 10721 ft | 129 kts | 287° |
| 2026-04-21 15:41 | 64.63319 | -28.87908 | 10720 ft | 129 kts | 287° |
| 2026-04-21 15:42 | 64.63648 | -28.89863 | 10720 ft | 129 kts | 287° |
| 2026-04-21 15:42 | 64.63978 | -28.91819 | 10721 ft | 129 kts | 287° |
| 2026-04-21 15:42 | 64.64306 | -28.93769 | 10720 ft | 129 kts | 287° |
| 2026-04-21 15:42 | 64.64634 | -28.95724 | 10721 ft | 129 kts | 287° |
| 2026-04-21 15:43 | 64.64961 | -28.97674 | 10718 ft | 129 kts | 286° |
| 2026-04-21 15:43 | 64.65289 | -28.99628 | 10714 ft | 129 kts | 286° |
| 2026-04-21 15:43 | 64.65616 | -29.01582 | 10719 ft | 129 kts | 286° |
| 2026-04-21 15:43 | 64.65943 | -29.03537 | 10717 ft | 129 kts | 286° |
| 2026-04-21 15:44 | 64.66267 | -29.05473 | 10724 ft | 129 kts | 286° |
| 2026-04-21 15:44 | 64.66594 | -29.07430 | 10717 ft | 129 kts | 286° |
| 2026-04-21 15:44 | 64.66924 | -29.09413 | 10720 ft | 129 kts | 286° |
| 2026-04-21 15:44 | 64.67246 | -29.11343 | 10714 ft | 129 kts | 286° |
| 2026-04-21 15:45 | 64.67572 | -29.13303 | 10717 ft | 129 kts | 286° |
| 2026-04-21 15:45 | 64.67898 | -29.15263 | 10712 ft | 129 kts | 286° |
| 2026-04-21 15:45 | 64.68223 | -29.17218 | 10712 ft | 129 kts | 286° |
| 2026-04-21 15:45 | 64.68547 | -29.19175 | 10717 ft | 129 kts | 286° |
| 2026-04-21 15:46 | 64.68872 | -29.21136 | 10713 ft | 129 kts | 286° |
| 2026-04-21 15:46 | 64.69196 | -29.23092 | 10713 ft | 129 kts | 286° |
| 2026-04-21 15:46 | 64.69520 | -29.25047 | 10715 ft | 129 kts | 286° |
| 2026-04-21 15:46 | 64.69842 | -29.27000 | 10715 ft | 129 kts | 286° |
| 2026-04-21 15:47 | 64.70166 | -29.28960 | 10716 ft | 129 kts | 286° |
| 2026-04-21 15:47 | 64.70489 | -29.30917 | 10713 ft | 129 kts | 286° |
| 2026-04-21 15:47 | 64.70807 | -29.32849 | 10713 ft | 129 kts | 286° |
| 2026-04-21 15:47 | 64.71128 | -29.34803 | 10712 ft | 129 kts | 286° |
| 2026-04-21 15:48 | 64.71451 | -29.36766 | 10713 ft | 129 kts | 286° |
| 2026-04-21 15:48 | 64.71773 | -29.38724 | 10709 ft | 129 kts | 286° |
| 2026-04-21 15:48 | 64.72095 | -29.40688 | 10710 ft | 129 kts | 286° |
| 2026-04-21 15:48 | 64.72417 | -29.42657 | 10710 ft | 129 kts | 286° |
| 2026-04-21 15:49 | 64.72739 | -29.44622 | 10713 ft | 129 kts | 285° |
| 2026-04-21 15:49 | 64.73060 | -29.46586 | 10710 ft | 129 kts | 285° |
| 2026-04-21 15:49 | 64.73381 | -29.48551 | 10710 ft | 129 kts | 285° |
| 2026-04-21 15:49 | 64.73701 | -29.50511 | 10710 ft | 129 kts | 285° |
| 2026-04-21 15:50 | 64.74020 | -29.52469 | 10709 ft | 129 kts | 285° |
| 2026-04-21 15:50 | 64.74340 | -29.54431 | 10708 ft | 129 kts | 285° |
| 2026-04-21 15:50 | 64.74654 | -29.56363 | 10712 ft | 129 kts | 285° |
| 2026-04-21 15:50 | 64.74973 | -29.58326 | 10706 ft | 129 kts | 285° |
| 2026-04-21 15:51 | 64.75292 | -29.60288 | 10706 ft | 129 kts | 285° |
| 2026-04-21 15:51 | 64.75610 | -29.62252 | 10707 ft | 129 kts | 285° |
| 2026-04-21 15:51 | 64.75929 | -29.64221 | 10708 ft | 129 kts | 285° |
| 2026-04-21 15:51 | 64.76248 | -29.66194 | 10708 ft | 129 kts | 285° |
| 2026-04-21 15:52 | 64.76566 | -29.68161 | 10709 ft | 129 kts | 285° |
| 2026-04-21 15:52 | 64.76885 | -29.70137 | 10710 ft | 129 kts | 285° |
| 2026-04-21 15:52 | 64.77200 | -29.72090 | 10704 ft | 129 kts | 285° |
| 2026-04-21 15:52 | 64.77518 | -29.74064 | 10707 ft | 129 kts | 285° |
| 2026-04-21 15:53 | 64.77836 | -29.76039 | 10704 ft | 129 kts | 285° |
| 2026-04-21 15:53 | 64.78154 | -29.78014 | 10704 ft | 129 kts | 285° |
| 2026-04-21 15:53 | 64.78470 | -29.79983 | 10705 ft | 129 kts | 285° |
| 2026-04-21 15:53 | 64.78787 | -29.81954 | 10705 ft | 129 kts | 285° |
| 2026-04-21 15:54 | 64.79103 | -29.83929 | 10703 ft | 129 kts | 285° |
| 2026-04-21 15:54 | 64.79419 | -29.85903 | 10702 ft | 129 kts | 285° |
| 2026-04-21 15:54 | 64.79735 | -29.87878 | 10702 ft | 129 kts | 285° |
| 2026-04-21 15:54 | 64.80050 | -29.89852 | 10702 ft | 129 kts | 285° |
| 2026-04-21 15:55 | 64.80362 | -29.91804 | 10705 ft | 129 kts | 285° |
| 2026-04-21 15:55 | 64.80681 | -29.93805 | 10702 ft | 129 kts | 285° |
| 2026-04-21 15:55 | 64.80994 | -29.95767 | 10700 ft | 129 kts | 284° |
| 2026-04-21 15:55 | 64.81308 | -29.97743 | 10706 ft | 129 kts | 284° |
| 2026-04-21 15:56 | 64.81622 | -29.99719 | 10702 ft | 129 kts | 284° |
| 2026-04-21 15:56 | 64.81846 | -30.01698 | 10701 ft | 127 kts | 278° |
| 2026-04-21 15:56 | 64.82054 | -30.03717 | 10699 ft | 127 kts | 278° |
| 2026-04-21 15:56 | 64.82265 | -30.05737 | 10701 ft | 127 kts | 278° |
| 2026-04-21 15:57 | 64.82475 | -30.07761 | 10701 ft | 128 kts | 278° |
| 2026-04-21 15:57 | 64.82685 | -30.09784 | 10701 ft | 128 kts | 278° |
| 2026-04-21 15:57 | 64.82896 | -30.11815 | 10702 ft | 128 kts | 278° |
| 2026-04-21 15:57 | 64.83106 | -30.13843 | 10701 ft | 128 kts | 278° |
| 2026-04-21 15:58 | 64.83316 | -30.15869 | 10704 ft | 128 kts | 278° |
| 2026-04-21 15:58 | 64.83525 | -30.17901 | 10700 ft | 128 kts | 278° |
| 2026-04-21 15:58 | 64.83734 | -30.19931 | 10705 ft | 128 kts | 278° |
| 2026-04-21 15:58 | 64.83944 | -30.21967 | 10702 ft | 128 kts | 278° |
| 2026-04-21 15:59 | 64.84153 | -30.23997 | 10700 ft | 128 kts | 278° |
| 2026-04-21 15:59 | 64.84361 | -30.26030 | 10702 ft | 128 kts | 278° |
| 2026-04-21 15:59 | 64.84570 | -30.28060 | 10699 ft | 128 kts | 278° |
| 2026-04-21 15:59 | 64.84778 | -30.30094 | 10700 ft | 128 kts | 278° |
| 2026-04-21 16:00 | 64.84985 | -30.32124 | 10700 ft | 128 kts | 278° |
| 2026-04-21 16:00 | 64.85193 | -30.34166 | 10695 ft | 128 kts | 278° |
| 2026-04-21 16:00 | 64.85401 | -30.36207 | 10696 ft | 128 kts | 278° |
| 2026-04-21 16:00 | 64.85609 | -30.38246 | 10698 ft | 128 kts | 278° |
| 2026-04-21 16:01 | 64.85815 | -30.40278 | 10696 ft | 128 kts | 278° |
| 2026-04-21 16:01 | 64.86022 | -30.42316 | 10696 ft | 128 kts | 278° |
| 2026-04-21 16:01 | 64.86228 | -30.44351 | 10697 ft | 128 kts | 278° |
| 2026-04-21 16:01 | 64.86433 | -30.46383 | 10699 ft | 128 kts | 278° |
| 2026-04-21 16:02 | 64.86639 | -30.48419 | 10695 ft | 128 kts | 278° |
| 2026-04-21 16:02 | 64.86844 | -30.50455 | 10696 ft | 128 kts | 278° |
| 2026-04-21 16:02 | 64.87049 | -30.52488 | 10697 ft | 128 kts | 278° |
| 2026-04-21 16:02 | 64.87254 | -30.54529 | 10696 ft | 128 kts | 278° |
| 2026-04-21 16:03 | 64.87458 | -30.56567 | 10695 ft | 128 kts | 278° |
| 2026-04-21 16:03 | 64.87663 | -30.58606 | 10694 ft | 128 kts | 278° |
| 2026-04-21 16:03 | 64.87865 | -30.60630 | 10695 ft | 128 kts | 278° |
| 2026-04-21 16:03 | 64.88069 | -30.62677 | 10692 ft | 128 kts | 278° |
| 2026-04-21 16:04 | 64.88273 | -30.64720 | 10690 ft | 128 kts | 278° |
| 2026-04-21 16:04 | 64.88477 | -30.66763 | 10694 ft | 128 kts | 278° |
| 2026-04-21 16:04 | 64.88680 | -30.68804 | 10694 ft | 128 kts | 277° |
| 2026-04-21 16:04 | 64.88883 | -30.70846 | 10684 ft | 128 kts | 277° |
| 2026-04-21 16:05 | 64.89085 | -30.72889 | 10684 ft | 128 kts | 277° |
| 2026-04-21 16:05 | 64.89288 | -30.74936 | 10681 ft | 128 kts | 277° |
| 2026-04-21 16:05 | 64.89489 | -30.76975 | 10682 ft | 128 kts | 277° |
| 2026-04-21 16:05 | 64.89691 | -30.79018 | 10690 ft | 128 kts | 277° |
| 2026-04-21 16:06 | 64.89892 | -30.81059 | 10693 ft | 128 kts | 277° |
| 2026-04-21 16:06 | 64.90093 | -30.83105 | 10688 ft | 128 kts | 277° |
| 2026-04-21 16:06 | 64.90294 | -30.85154 | 10690 ft | 128 kts | 277° |
| 2026-04-21 16:06 | 64.90495 | -30.87198 | 10690 ft | 128 kts | 277° |
| 2026-04-21 16:07 | 64.90695 | -30.89249 | 10694 ft | 129 kts | 277° |
| 2026-04-21 16:07 | 64.90896 | -30.91304 | 10687 ft | 129 kts | 277° |
| 2026-04-21 16:07 | 64.91097 | -30.93364 | 10691 ft | 129 kts | 277° |
| 2026-04-21 16:07 | 64.91299 | -30.95430 | 10682 ft | 130 kts | 277° |
| 2026-04-21 16:08 | 64.91701 | -30.99567 | 10689 ft | 129 kts | 277° |
| 2026-04-21 16:08 | 64.91899 | -31.01612 | 10688 ft | 129 kts | 277° |
| 2026-04-21 16:08 | 64.92100 | -31.03680 | 10690 ft | 129 kts | 277° |
| 2026-04-21 16:09 | 64.92300 | -31.05748 | 10688 ft | 129 kts | 277° |
| 2026-04-21 16:09 | 64.92500 | -31.07818 | 10688 ft | 130 kts | 277° |
| 2026-04-21 16:09 | 64.92700 | -31.09893 | 10689 ft | 130 kts | 277° |
| 2026-04-21 16:09 | 64.92832 | -31.11273 | 10692 ft | 130 kts | 277° |
| 2026-04-21 16:10 | 64.93100 | -31.14059 | 10689 ft | 130 kts | 277° |
| 2026-04-21 16:10 | 64.93233 | -31.15441 | 10685 ft | 130 kts | 277° |
| 2026-04-21 16:10 | 64.93433 | -31.17525 | 10686 ft | 130 kts | 277° |
| 2026-04-21 16:10 | 64.93632 | -31.19610 | 10687 ft | 130 kts | 276° |
| 2026-04-21 16:11 | 64.93896 | -31.22371 | 10687 ft | 130 kts | 276° |
| 2026-04-21 16:11 | 64.94030 | -31.23781 | 10685 ft | 130 kts | 276° |
| 2026-04-21 16:11 | 64.94229 | -31.25867 | 10686 ft | 130 kts | 276° |
| 2026-04-21 16:11 | 64.94427 | -31.27958 | 10681 ft | 131 kts | 276° |
| 2026-04-21 16:12 | 64.94627 | -31.30055 | 10683 ft | 131 kts | 276° |
| 2026-04-21 16:12 | 64.94823 | -31.32128 | 10686 ft | 131 kts | 276° |
| 2026-04-21 16:12 | 64.95021 | -31.34225 | 10682 ft | 131 kts | 276° |
| 2026-04-21 16:12 | 64.95220 | -31.36325 | 10682 ft | 131 kts | 276° |
| 2026-04-21 16:13 | 64.95417 | -31.38421 | 10684 ft | 131 kts | 276° |
| 2026-04-21 16:13 | 64.95615 | -31.40523 | 10685 ft | 131 kts | 276° |
| 2026-04-21 16:13 | 64.95812 | -31.42621 | 10683 ft | 131 kts | 276° |
| 2026-04-21 16:13 | 64.96009 | -31.44720 | 10683 ft | 131 kts | 276° |
| 2026-04-21 16:14 | 64.96206 | -31.46824 | 10682 ft | 131 kts | 276° |
| 2026-04-21 16:14 | 64.96403 | -31.48930 | 10686 ft | 131 kts | 276° |
| 2026-04-21 16:14 | 64.96600 | -31.51037 | 10683 ft | 131 kts | 276° |
| 2026-04-21 16:14 | 64.96797 | -31.53147 | 10680 ft | 132 kts | 276° |
| 2026-04-21 16:15 | 64.96994 | -31.55262 | 10683 ft | 132 kts | 276° |
| 2026-04-21 16:15 | 64.97190 | -31.57380 | 10680 ft | 132 kts | 276° |
| 2026-04-21 16:15 | 64.97383 | -31.59461 | 10680 ft | 132 kts | 276° |
| 2026-04-21 16:15 | 64.97579 | -31.61575 | 10682 ft | 132 kts | 276° |
| 2026-04-21 16:16 | 64.97775 | -31.63693 | 10683 ft | 132 kts | 276° |
| 2026-04-21 16:16 | 64.97970 | -31.65804 | 10683 ft | 132 kts | 276° |
| 2026-04-21 16:16 | 64.98165 | -31.67929 | 10684 ft | 132 kts | 276° |
| 2026-04-21 16:16 | 64.98360 | -31.70050 | 10682 ft | 132 kts | 275° |
| 2026-04-21 16:17 | 64.98556 | -31.72179 | 10680 ft | 132 kts | 275° |
| 2026-04-21 16:17 | 64.98751 | -31.74305 | 10681 ft | 132 kts | 275° |
| 2026-04-21 16:17 | 64.98945 | -31.76433 | 10679 ft | 132 kts | 275° |
| 2026-04-21 16:17 | 64.99140 | -31.78562 | 10683 ft | 133 kts | 275° |
| 2026-04-21 16:18 | 64.99334 | -31.80693 | 10683 ft | 133 kts | 275° |
| 2026-04-21 16:18 | 64.99528 | -31.82825 | 10679 ft | 133 kts | 275° |
| 2026-04-21 16:18 | 64.99722 | -31.84961 | 10678 ft | 133 kts | 275° |
| 2026-04-21 16:18 | 64.99914 | -31.87076 | 10680 ft | 133 kts | 275° |
| 2026-04-21 16:19 | 65.00108 | -31.89215 | 10679 ft | 133 kts | 275° |
| 2026-04-21 16:19 | 65.00302 | -31.91356 | 10682 ft | 133 kts | 275° |
| 2026-04-21 16:19 | 65.00495 | -31.93497 | 10681 ft | 133 kts | 275° |
| 2026-04-21 16:19 | 65.00688 | -31.95642 | 10673 ft | 133 kts | 275° |
| 2026-04-21 16:20 | 65.00881 | -31.97784 | 10676 ft | 133 kts | 275° |
| 2026-04-21 16:20 | 65.01073 | -31.99927 | 10675 ft | 133 kts | 275° |
| 2026-04-21 16:20 | 65.01265 | -32.02068 | 10673 ft | 133 kts | 275° |
| 2026-04-21 16:20 | 65.01457 | -32.04209 | 10674 ft | 133 kts | 275° |
| 2026-04-21 16:21 | 65.01648 | -32.06354 | 10675 ft | 133 kts | 275° |
| 2026-04-21 16:21 | 65.01839 | -32.08497 | 10674 ft | 133 kts | 275° |
| 2026-04-21 16:21 | 65.02031 | -32.10648 | 10674 ft | 134 kts | 275° |
| 2026-04-21 16:21 | 65.02222 | -32.12804 | 10676 ft | 134 kts | 275° |
| 2026-04-21 16:22 | 65.02414 | -32.14966 | 10677 ft | 134 kts | 274° |
| 2026-04-21 16:22 | 65.02603 | -32.17098 | 10674 ft | 134 kts | 274° |
| 2026-04-21 16:22 | 65.02794 | -32.19255 | 10676 ft | 134 kts | 274° |
| 2026-04-21 16:22 | 65.02984 | -32.21416 | 10676 ft | 134 kts | 274° |
| 2026-04-21 16:23 | 65.03174 | -32.23578 | 10672 ft | 134 kts | 274° |
| 2026-04-21 16:23 | 65.03364 | -32.25731 | 10660 ft | 134 kts | 274° |
| 2026-04-21 16:23 | 65.03553 | -32.27890 | 10667 ft | 134 kts | 274° |
| 2026-04-21 16:23 | 65.03742 | -32.30048 | 10666 ft | 134 kts | 274° |
| 2026-04-21 16:24 | 65.03931 | -32.32214 | 10674 ft | 134 kts | 274° |
| 2026-04-21 16:24 | 65.04121 | -32.34381 | 10675 ft | 134 kts | 274° |
| 2026-04-21 16:24 | 65.04310 | -32.36551 | 10676 ft | 134 kts | 274° |
| 2026-04-21 16:24 | 65.04498 | -32.38715 | 10675 ft | 134 kts | 274° |
| 2026-04-21 16:25 | 65.04686 | -32.40881 | 10676 ft | 134 kts | 274° |
| 2026-04-21 16:25 | 65.04871 | -32.43017 | 10672 ft | 134 kts | 274° |
| 2026-04-21 16:25 | 65.05058 | -32.45180 | 10674 ft | 134 kts | 274° |
| 2026-04-21 16:25 | 65.05245 | -32.47344 | 10674 ft | 134 kts | 274° |
| 2026-04-21 16:26 | 65.05432 | -32.49510 | 10673 ft | 134 kts | 274° |
| 2026-04-21 16:26 | 65.05618 | -32.51675 | 10673 ft | 134 kts | 274° |
| 2026-04-21 16:26 | 65.05804 | -32.53839 | 10673 ft | 134 kts | 274° |
| 2026-04-21 16:26 | 65.05990 | -32.56008 | 10671 ft | 134 kts | 274° |
| 2026-04-21 16:27 | 65.06175 | -32.58179 | 10669 ft | 135 kts | 274° |
| 2026-04-21 16:27 | 65.06361 | -32.60355 | 10666 ft | 135 kts | 274° |
| 2026-04-21 16:27 | 65.06547 | -32.62535 | 10667 ft | 135 kts | 274° |
| 2026-04-21 16:27 | 65.06732 | -32.64713 | 10670 ft | 135 kts | 274° |
| 2026-04-21 16:28 | 65.06918 | -32.66895 | 10668 ft | 135 kts | 274° |
| 2026-04-21 16:28 | 65.07102 | -32.69068 | 10672 ft | 135 kts | 274° |
| 2026-04-21 16:28 | 65.07286 | -32.71245 | 10666 ft | 134 kts | 273° |
| 2026-04-21 16:28 | 65.07470 | -32.73420 | 10667 ft | 135 kts | 273° |
| 2026-04-21 16:29 | 65.07653 | -32.75595 | 10669 ft | 135 kts | 274° |
| 2026-04-21 16:29 | 65.07836 | -32.77770 | 10668 ft | 135 kts | 274° |
| 2026-04-21 16:29 | 65.08020 | -32.79953 | 10667 ft | 135 kts | 274° |
| 2026-04-21 16:29 | 65.08203 | -32.82136 | 10665 ft | 135 kts | 273° |
| 2026-04-21 16:30 | 65.08385 | -32.84318 | 10669 ft | 135 kts | 273° |
| 2026-04-21 16:30 | 65.08568 | -32.86500 | 10667 ft | 135 kts | 273° |
| 2026-04-21 16:30 | 65.08750 | -32.88684 | 10663 ft | 135 kts | 273° |
| 2026-04-21 16:30 | 65.08932 | -32.90871 | 10667 ft | 135 kts | 273° |
| 2026-04-21 16:31 | 65.09111 | -32.93028 | 10665 ft | 135 kts | 273° |
| 2026-04-21 16:31 | 65.09294 | -32.95243 | 10661 ft | 135 kts | 273° |
| 2026-04-21 16:31 | 65.09473 | -32.97405 | 10664 ft | 135 kts | 273° |
| 2026-04-21 16:31 | 65.09654 | -32.99595 | 10662 ft | 135 kts | 273° |
| 2026-04-21 16:32 | 65.09835 | -33.01789 | 10666 ft | 135 kts | 273° |
| 2026-04-21 16:32 | 65.10015 | -33.03976 | 10663 ft | 135 kts | 273° |
| 2026-04-21 16:32 | 65.10195 | -33.06166 | 10663 ft | 135 kts | 273° |
| 2026-04-21 16:32 | 65.10374 | -33.08351 | 10664 ft | 135 kts | 273° |
| 2026-04-21 16:33 | 65.10553 | -33.10540 | 10664 ft | 135 kts | 273° |
| 2026-04-21 16:33 | 65.10731 | -33.12726 | 10664 ft | 135 kts | 273° |
| 2026-04-21 16:33 | 65.10910 | -33.14916 | 10667 ft | 135 kts | 273° |
| 2026-04-21 16:33 | 65.11088 | -33.17108 | 10660 ft | 135 kts | 273° |
| 2026-04-21 16:34 | 65.11266 | -33.19305 | 10659 ft | 135 kts | 273° |
| 2026-04-21 16:34 | 65.11444 | -33.21500 | 10664 ft | 135 kts | 272° |
| 2026-04-21 16:34 | 65.11622 | -33.23697 | 10663 ft | 135 kts | 272° |
| 2026-04-21 16:34 | 65.11799 | -33.25894 | 10663 ft | 136 kts | 272° |
| 2026-04-21 16:35 | 65.11976 | -33.28091 | 10662 ft | 135 kts | 272° |
| 2026-04-21 16:35 | 65.12150 | -33.30254 | 10661 ft | 135 kts | 272° |
| 2026-04-21 16:35 | 65.12326 | -33.32450 | 10662 ft | 135 kts | 272° |
| 2026-04-21 16:35 | 65.12502 | -33.34645 | 10659 ft | 135 kts | 272° |
| 2026-04-21 16:36 | 65.12677 | -33.36842 | 10662 ft | 135 kts | 272° |
| 2026-04-21 16:36 | 65.12852 | -33.39034 | 10663 ft | 135 kts | 272° |
| 2026-04-21 16:36 | 65.13027 | -33.41231 | 10663 ft | 135 kts | 272° |
| 2026-04-21 16:36 | 65.13201 | -33.43427 | 10659 ft | 136 kts | 272° |
| 2026-04-21 16:37 | 65.13375 | -33.45619 | 10659 ft | 135 kts | 272° |
| 2026-04-21 16:37 | 65.13550 | -33.47830 | 10659 ft | 136 kts | 272° |
| 2026-04-21 16:37 | 65.13724 | -33.50031 | 10657 ft | 136 kts | 272° |
| 2026-04-21 16:37 | 65.13898 | -33.52234 | 10659 ft | 136 kts | 272° |
| 2026-04-21 16:38 | 65.14071 | -33.54443 | 10658 ft | 136 kts | 272° |
| 2026-04-21 16:38 | 65.14243 | -33.56625 | 10660 ft | 136 kts | 272° |
| 2026-04-21 16:38 | 65.14415 | -33.58828 | 10662 ft | 135 kts | 272° |
| 2026-04-21 16:38 | 65.14587 | -33.61031 | 10657 ft | 136 kts | 272° |
| 2026-04-21 16:39 | 65.14759 | -33.63235 | 10658 ft | 136 kts | 272° |
| 2026-04-21 16:39 | 65.14931 | -33.65439 | 10660 ft | 135 kts | 272° |
| 2026-04-21 16:39 | 65.15103 | -33.67644 | 10661 ft | 135 kts | 272° |
| 2026-04-21 16:39 | 65.15273 | -33.69843 | 10657 ft | 136 kts | 272° |
| 2026-04-21 16:40 | 65.15444 | -33.72054 | 10661 ft | 136 kts | 272° |
| 2026-04-21 16:40 | 65.15612 | -33.74231 | 10659 ft | 135 kts | 272° |
| 2026-04-21 16:40 | 65.15782 | -33.76434 | 10659 ft | 135 kts | 272° |
| 2026-04-21 16:40 | 65.15952 | -33.78642 | 10660 ft | 136 kts | 271° |
| 2026-04-21 16:41 | 65.16064 | -33.80104 | 10660 ft | 136 kts | 271° |
| 2026-04-21 16:41 | 65.16291 | -33.83054 | 10662 ft | 135 kts | 271° |
| 2026-04-21 16:41 | 65.16459 | -33.85260 | 10659 ft | 135 kts | 271° |
| 2026-04-21 16:41 | 65.16627 | -33.87467 | 10656 ft | 136 kts | 271° |
| 2026-04-21 16:42 | 65.16796 | -33.89675 | 10655 ft | 135 kts | 271° |
| 2026-04-21 16:42 | 65.16961 | -33.91851 | 10659 ft | 135 kts | 271° |
| 2026-04-21 16:42 | 65.17129 | -33.94058 | 10654 ft | 136 kts | 271° |
| 2026-04-21 16:42 | 65.17296 | -33.96267 | 10658 ft | 136 kts | 271° |
| 2026-04-21 16:43 | 65.17463 | -33.98475 | 10654 ft | 136 kts | 271° |
| 2026-04-21 16:43 | 65.17629 | -34.00684 | 10657 ft | 136 kts | 271° |
| 2026-04-21 16:43 | 65.17795 | -34.02895 | 10659 ft | 135 kts | 271° |
| 2026-04-21 16:43 | 65.17961 | -34.05104 | 10655 ft | 136 kts | 271° |
| 2026-04-21 16:44 | 65.18127 | -34.07314 | 10655 ft | 135 kts | 271° |
| 2026-04-21 16:44 | 65.18291 | -34.09517 | 10656 ft | 135 kts | 271° |
| 2026-04-21 16:44 | 65.18456 | -34.11724 | 10657 ft | 135 kts | 271° |
| 2026-04-21 16:44 | 65.18620 | -34.13927 | 10653 ft | 135 kts | 271° |
| 2026-04-21 16:45 | 65.18784 | -34.16139 | 10654 ft | 135 kts | 271° |
| 2026-04-21 16:45 | 65.18945 | -34.18314 | 10656 ft | 135 kts | 271° |
| 2026-04-21 16:45 | 65.19109 | -34.20522 | 10658 ft | 135 kts | 271° |
| 2026-04-21 16:45 | 65.19272 | -34.22732 | 10653 ft | 136 kts | 270° |
| 2026-04-21 16:46 | 65.19435 | -34.24951 | 10654 ft | 136 kts | 270° |
| 2026-04-21 16:46 | 65.19599 | -34.27172 | 10654 ft | 136 kts | 271° |
| 2026-04-21 16:46 | 65.19762 | -34.29394 | 10656 ft | 136 kts | 270° |
| 2026-04-21 16:46 | 65.19924 | -34.31615 | 10656 ft | 136 kts | 270° |
| 2026-04-21 16:47 | 65.20087 | -34.33838 | 10654 ft | 136 kts | 270° |
| 2026-04-21 16:47 | 65.20248 | -34.36055 | 10653 ft | 136 kts | 270° |
| 2026-04-21 16:47 | 65.20409 | -34.38273 | 10654 ft | 136 kts | 270° |
| 2026-04-21 16:47 | 65.20570 | -34.40494 | 10656 ft | 136 kts | 270° |
| 2026-04-21 16:48 | 65.20731 | -34.42717 | 10655 ft | 136 kts | 270° |
| 2026-04-21 16:48 | 65.20891 | -34.44918 | 10655 ft | 136 kts | 270° |
| 2026-04-21 16:48 | 65.21051 | -34.47141 | 10656 ft | 136 kts | 270° |
| 2026-04-21 16:48 | 65.21211 | -34.49363 | 10658 ft | 136 kts | 270° |
| 2026-04-21 16:49 | 65.21370 | -34.51589 | 10657 ft | 136 kts | 270° |
| 2026-04-21 16:49 | 65.21530 | -34.53816 | 10654 ft | 136 kts | 270° |
| 2026-04-21 16:49 | 65.21689 | -34.56047 | 10657 ft | 136 kts | 270° |
| 2026-04-21 16:49 | 65.21848 | -34.58278 | 10654 ft | 137 kts | 270° |
| 2026-04-21 16:50 | 65.22007 | -34.60514 | 10656 ft | 137 kts | 269° |
| 2026-04-21 16:50 | 65.22166 | -34.62753 | 10655 ft | 137 kts | 269° |
| 2026-04-21 16:50 | 65.22325 | -34.64992 | 10654 ft | 137 kts | 269° |
| 2026-04-21 16:50 | 65.22481 | -34.67203 | 10655 ft | 137 kts | 269° |
| 2026-04-21 16:51 | 65.22639 | -34.69443 | 10655 ft | 137 kts | 269° |
| 2026-04-21 16:51 | 65.22797 | -34.71681 | 10654 ft | 137 kts | 269° |
| 2026-04-21 16:51 | 65.22954 | -34.73919 | 10655 ft | 137 kts | 269° |
| 2026-04-21 16:51 | 65.23111 | -34.76160 | 10651 ft | 137 kts | 269° |
| 2026-04-21 16:52 | 65.23268 | -34.78408 | 10654 ft | 137 kts | 269° |
| 2026-04-21 16:52 | 65.23424 | -34.80647 | 10652 ft | 137 kts | 269° |
| 2026-04-21 16:52 | 65.23528 | -34.82133 | 10652 ft | 137 kts | 269° |
| 2026-04-21 16:52 | 65.23737 | -34.85150 | 10650 ft | 138 kts | 269° |
| 2026-04-21 16:53 | 65.23893 | -34.87404 | 10650 ft | 138 kts | 269° |
| 2026-04-21 16:53 | 65.24049 | -34.89657 | 10653 ft | 138 kts | 269° |
| 2026-04-21 16:53 | 65.24205 | -34.91912 | 10653 ft | 138 kts | 268° |
| 2026-04-21 16:53 | 65.24360 | -34.94172 | 10651 ft | 138 kts | 268° |
| 2026-04-21 16:54 | 65.24513 | -34.96397 | 10653 ft | 138 kts | 268° |
| 2026-04-21 16:54 | 65.24667 | -34.98650 | 10653 ft | 138 kts | 268° |
| 2026-04-21 16:54 | 65.24821 | -35.00903 | 10652 ft | 138 kts | 268° |
| 2026-04-21 16:54 | 65.24975 | -35.03161 | 10653 ft | 138 kts | 268° |
| 2026-04-21 16:55 | 65.25129 | -35.05422 | 10653 ft | 138 kts | 268° |
| 2026-04-21 16:55 | 65.25283 | -35.07692 | 10653 ft | 138 kts | 268° |
| 2026-04-21 16:55 | 65.25436 | -35.09961 | 10656 ft | 139 kts | 268° |
| 2026-04-21 16:55 | 65.25590 | -35.12241 | 10649 ft | 139 kts | 268° |
| 2026-04-21 16:56 | 65.25744 | -35.14520 | 10651 ft | 139 kts | 268° |
| 2026-04-21 16:56 | 65.25897 | -35.16802 | 10649 ft | 139 kts | 268° |
| 2026-04-21 16:56 | 65.26050 | -35.19079 | 10651 ft | 139 kts | 268° |
| 2026-04-21 16:56 | 65.26203 | -35.21361 | 10653 ft | 139 kts | 267° |
| 2026-04-21 16:57 | 65.26355 | -35.23649 | 10652 ft | 139 kts | 267° |
| 2026-04-21 16:57 | 65.26506 | -35.25905 | 10652 ft | 139 kts | 267° |
| 2026-04-21 16:57 | 65.26666 | -35.28195 | 10652 ft | 141 kts | 271° |
| 2026-04-21 16:57 | 65.27033 | -35.30429 | 10652 ft | 146 kts | 282° |
| 2026-04-21 16:58 | 65.27426 | -35.32667 | 10653 ft | 146 kts | 281° |
| 2026-04-21 16:58 | 65.27816 | -35.34913 | 10650 ft | 147 kts | 281° |
| 2026-04-21 16:58 | 65.28208 | -35.37165 | 10652 ft | 147 kts | 281° |
| 2026-04-21 16:58 | 65.28601 | -35.39420 | 10651 ft | 147 kts | 281° |
| 2026-04-21 16:59 | 65.28993 | -35.41677 | 10651 ft | 147 kts | 281° |
| 2026-04-21 16:59 | 65.29386 | -35.43940 | 10652 ft | 147 kts | 281° |
| 2026-04-21 16:59 | 65.29778 | -35.46200 | 10647 ft | 147 kts | 281° |
| 2026-04-21 16:59 | 65.30038 | -35.47702 | 10644 ft | 148 kts | 281° |
| 2026-04-21 17:00 | 65.30563 | -35.50739 | 10651 ft | 148 kts | 281° |
| 2026-04-21 17:00 | 65.30823 | -35.52241 | 10647 ft | 148 kts | 281° |
| 2026-04-21 17:00 | 65.31216 | -35.54515 | 10650 ft | 148 kts | 281° |
| 2026-04-21 17:00 | 65.31608 | -35.56789 | 10644 ft | 148 kts | 280° |
| 2026-04-21 17:01 | 65.32128 | -35.59811 | 10643 ft | 148 kts | 280° |
| 2026-04-21 17:01 | 65.32394 | -35.61358 | 10644 ft | 148 kts | 280° |
| 2026-04-21 17:01 | 65.32787 | -35.63643 | 10646 ft | 149 kts | 280° |
| 2026-04-21 17:01 | 65.33307 | -35.66674 | 10650 ft | 149 kts | 280° |
| 2026-04-21 17:02 | 65.33568 | -35.68195 | 10647 ft | 149 kts | 280° |
| 2026-04-21 17:02 | 65.33960 | -35.70486 | 10648 ft | 149 kts | 280° |
| 2026-04-21 17:02 | 65.34353 | -35.72782 | 10648 ft | 149 kts | 280° |
| 2026-04-21 17:02 | 65.34746 | -35.75085 | 10649 ft | 149 kts | 280° |
| 2026-04-21 17:03 | 65.35139 | -35.77391 | 10639 ft | 150 kts | 279° |
| 2026-04-21 17:03 | 65.35533 | -35.79701 | 10646 ft | 150 kts | 279° |
| 2026-04-21 17:03 | 65.35927 | -35.82014 | 10646 ft | 150 kts | 279° |
| 2026-04-21 17:03 | 65.36320 | -35.84327 | 10648 ft | 150 kts | 279° |
| 2026-04-21 17:04 | 65.36714 | -35.86646 | 10641 ft | 150 kts | 279° |
| 2026-04-21 17:04 | 65.37107 | -35.88961 | 10645 ft | 150 kts | 279° |
| 2026-04-21 17:04 | 65.37500 | -35.91284 | 10646 ft | 150 kts | 279° |
| 2026-04-21 17:04 | 65.37892 | -35.93599 | 10644 ft | 149 kts | 279° |
| 2026-04-21 17:05 | 65.38283 | -35.95913 | 10648 ft | 150 kts | 279° |
| 2026-04-21 17:05 | 65.38670 | -35.98205 | 10646 ft | 150 kts | 279° |
| 2026-04-21 17:05 | 65.39062 | -36.00535 | 10645 ft | 150 kts | 279° |
| 2026-04-21 17:05 | 65.39454 | -36.02857 | 10644 ft | 150 kts | 279° |
| 2026-04-21 17:06 | 65.39845 | -36.05185 | 10644 ft | 151 kts | 279° |
| 2026-04-21 17:06 | 65.40237 | -36.07515 | 10642 ft | 150 kts | 279° |
| 2026-04-21 17:06 | 65.40627 | -36.09843 | 10644 ft | 150 kts | 279° |
| 2026-04-21 17:06 | 65.41018 | -36.12173 | 10643 ft | 150 kts | 279° |
| 2026-04-21 17:07 | 65.41407 | -36.14502 | 10640 ft | 150 kts | 279° |
| 2026-04-21 17:07 | 65.41797 | -36.16832 | 10643 ft | 150 kts | 279° |
| 2026-04-21 17:07 | 65.42186 | -36.19165 | 10641 ft | 151 kts | 279° |
| 2026-04-21 17:07 | 65.42576 | -36.21504 | 10642 ft | 151 kts | 278° |
| 2026-04-21 17:08 | 65.42965 | -36.23835 | 10639 ft | 150 kts | 278° |
| 2026-04-21 17:08 | 65.43353 | -36.26168 | 10644 ft | 151 kts | 278° |
| 2026-04-21 17:08 | 65.43741 | -36.28508 | 10645 ft | 151 kts | 278° |
| 2026-04-21 17:08 | 65.44125 | -36.30818 | 10638 ft | 151 kts | 278° |
| 2026-04-21 17:09 | 65.44901 | -36.35502 | 10641 ft | 151 kts | 278° |
| 2026-04-21 17:09 | 65.45288 | -36.37842 | 10641 ft | 151 kts | 278° |
| 2026-04-21 17:09 | 65.45674 | -36.40185 | 10640 ft | 151 kts | 278° |
| 2026-04-21 17:10 | 65.46061 | -36.42528 | 10639 ft | 151 kts | 278° |
| 2026-04-21 17:10 | 65.46448 | -36.44877 | 10634 ft | 151 kts | 278° |
| 2026-04-21 17:10 | 65.46833 | -36.47216 | 10636 ft | 151 kts | 278° |
| 2026-04-21 17:10 | 65.47214 | -36.49536 | 10635 ft | 151 kts | 278° |
| 2026-04-21 17:11 | 65.47598 | -36.51879 | 10639 ft | 151 kts | 278° |
| 2026-04-21 17:11 | 65.47983 | -36.54225 | 10631 ft | 151 kts | 278° |
| 2026-04-21 17:11 | 65.48368 | -36.56574 | 10637 ft | 151 kts | 278° |
| 2026-04-21 17:11 | 65.48703 | -36.58928 | 10624 ft | 140 kts | 262° |
| 2026-04-21 17:12 | 65.48603 | -36.61115 | 10628 ft | 130 kts | 246° |
| 2026-04-21 17:12 | 65.48456 | -36.63275 | 10631 ft | 131 kts | 247° |
| 2026-04-21 17:12 | 65.48342 | -36.65480 | 10629 ft | 133 kts | 249° |
| 2026-04-21 17:12 | 65.48256 | -36.67705 | 10625 ft | 134 kts | 251° |
| 2026-04-21 17:13 | 65.48179 | -36.69949 | 10629 ft | 134 kts | 251° |
| 2026-04-21 17:13 | 65.48104 | -36.72206 | 10507 ft | 135 kts | 251° |
| 2026-04-21 17:13 | 65.48034 | -36.74448 | 10318 ft | 133 kts | 251° |
| 2026-04-21 17:13 | 65.47962 | -36.76658 | 10123 ft | 132 kts | 251° |
| 2026-04-21 17:14 | 65.47890 | -36.78858 | 9934 ft | 131 kts | 251° |
| 2026-04-21 17:14 | 65.47818 | -36.81044 | 9744 ft | 131 kts | 251° |
| 2026-04-21 17:14 | 65.47746 | -36.83219 | 9558 ft | 130 kts | 252° |
| 2026-04-21 17:14 | 65.47675 | -36.85396 | 9373 ft | 130 kts | 252° |
| 2026-04-21 17:15 | 65.47603 | -36.87564 | 9186 ft | 130 kts | 252° |
| 2026-04-21 17:15 | 65.47531 | -36.89721 | 9004 ft | 129 kts | 252° |
| 2026-04-21 17:15 | 65.47459 | -36.91877 | 8822 ft | 129 kts | 252° |
| 2026-04-21 17:15 | 65.47387 | -36.93998 | 8644 ft | 129 kts | 253° |
| 2026-04-21 17:16 | 65.47315 | -36.96144 | 8462 ft | 128 kts | 253° |
| 2026-04-21 17:16 | 65.47243 | -36.98284 | 8285 ft | 128 kts | 253° |
| 2026-04-21 17:16 | 65.47170 | -37.00414 | 8107 ft | 128 kts | 253° |
| 2026-04-21 17:16 | 65.47097 | -37.02541 | 7928 ft | 127 kts | 253° |
| 2026-04-21 17:17 | 65.47024 | -37.04668 | 7748 ft | 127 kts | 253° |
| 2026-04-21 17:17 | 65.46952 | -37.06782 | 7578 ft | 127 kts | 254° |
| 2026-04-21 17:17 | 65.46879 | -37.08890 | 7403 ft | 126 kts | 254° |
| 2026-04-21 17:17 | 65.46806 | -37.10994 | 7228 ft | 126 kts | 255° |
| 2026-04-21 17:18 | 65.46733 | -37.13069 | 7060 ft | 126 kts | 255° |
| 2026-04-21 17:18 | 65.46660 | -37.15162 | 6878 ft | 126 kts | 255° |
| 2026-04-21 17:18 | 65.46586 | -37.17258 | 6694 ft | 126 kts | 255° |
| 2026-04-21 17:18 | 65.46512 | -37.19353 | 6507 ft | 125 kts | 255° |
| 2026-04-21 17:19 | 65.46438 | -37.21445 | 6325 ft | 125 kts | 256° |
| 2026-04-21 17:19 | 65.46364 | -37.23529 | 6146 ft | 125 kts | 256° |
| 2026-04-21 17:19 | 65.46290 | -37.25614 | 5963 ft | 125 kts | 256° |
| 2026-04-21 17:19 | 65.46215 | -37.27696 | 5781 ft | 125 kts | 256° |
| 2026-04-21 17:20 | 65.46140 | -37.29779 | 5606 ft | 125 kts | 257° |
| 2026-04-21 17:20 | 65.46065 | -37.31862 | 5428 ft | 125 kts | 257° |
| 2026-04-21 17:20 | 65.45989 | -37.33944 | 5243 ft | 125 kts | 257° |
| 2026-04-21 17:20 | 65.45914 | -37.36022 | 5057 ft | 124 kts | 257° |
| 2026-04-21 17:21 | 65.45838 | -37.38093 | 4873 ft | 124 kts | 258° |
| 2026-04-21 17:21 | 65.45762 | -37.40162 | 4689 ft | 124 kts | 258° |
| 2026-04-21 17:21 | 65.45686 | -37.42228 | 4510 ft | 124 kts | 258° |
| 2026-04-21 17:21 | 65.45610 | -37.44289 | 4325 ft | 123 kts | 259° |
| 2026-04-21 17:22 | 65.45539 | -37.46266 | 4282 ft | 114 kts | 258° |
| 2026-04-21 17:22 | 65.45465 | -37.48198 | 4281 ft | 117 kts | 258° |
| 2026-04-21 17:22 | 65.45609 | -37.50208 | 4157 ft | 130 kts | 294° |
| 2026-04-21 17:22 | 65.46264 | -37.51752 | 4022 ft | 136 kts | 333° |
| 2026-04-21 17:23 | 65.47134 | -37.52628 | 3904 ft | 136 kts | 338° |
| 2026-04-21 17:23 | 65.48007 | -37.53522 | 3777 ft | 137 kts | 338° |
| 2026-04-21 17:23 | 65.48882 | -37.54426 | 3650 ft | 137 kts | 338° |
| 2026-04-21 17:23 | 65.49757 | -37.55333 | 3520 ft | 137 kts | 338° |
| 2026-04-21 17:24 | 65.50619 | -37.56229 | 3467 ft | 131 kts | 338° |
| 2026-04-21 17:24 | 65.51452 | -37.57096 | 3465 ft | 130 kts | 338° |
| 2026-04-21 17:24 | 65.52313 | -37.57547 | 3457 ft | 126 kts | 9° |
| 2026-04-21 17:24 | 65.53104 | -37.56832 | 3455 ft | 120 kts | 41° |
| 2026-04-21 17:25 | 65.53609 | -37.55322 | 3456 ft | 114 kts | 71° |
| 2026-04-21 17:25 | 65.53669 | -37.53575 | 3460 ft | 104 kts | 113° |
| 2026-04-21 17:25 | 65.53704 | -37.51818 | 3362 ft | 118 kts | 66° |
| 2026-04-21 17:25 | 65.54136 | -37.50109 | 3238 ft | 120 kts | 65° |
| 2026-04-21 17:26 | 65.54541 | -37.48355 | 3111 ft | 120 kts | 66° |
| 2026-04-21 17:26 | 65.54939 | -37.46584 | 2986 ft | 120 kts | 66° |
| 2026-04-21 17:26 | 65.55333 | -37.44813 | 2856 ft | 120 kts | 66° |
| 2026-04-21 17:26 | 65.55718 | -37.43073 | 2802 ft | 114 kts | 66° |
| 2026-04-21 17:27 | 65.56064 | -37.41415 | 2790 ft | 107 kts | 75° |
| 2026-04-21 17:27 | 65.56162 | -37.39666 | 2717 ft | 107 kts | 88° |
| 2026-04-21 17:27 | 65.56243 | -37.37859 | 2557 ft | 109 kts | 86° |
| 2026-04-21 17:27 | 65.56325 | -37.36027 | 2379 ft | 110 kts | 86° |
| 2026-04-21 17:28 | 65.56403 | -37.34292 | 2204 ft | 98 kts | 87° |
| 2026-04-21 17:28 | 65.56472 | -37.32768 | 2042 ft | 86 kts | 86° |
| 2026-04-21 17:28 | 65.56537 | -37.31286 | 1903 ft | 90 kts | 86° |
| 2026-04-21 17:28 | 65.56602 | -37.29818 | 1753 ft | 85 kts | 86° |
| 2026-04-21 17:29 | 65.56663 | -37.28430 | 1602 ft | 83 kts | 85° |
| 2026-04-21 17:29 | 65.56723 | -37.27075 | 1487 ft | 77 kts | 85° |
| 2026-04-21 17:29 | 65.56780 | -37.25766 | 1372 ft | 81 kts | 85° |
| 2026-04-21 17:29 | 65.56841 | -37.24371 | 1222 ft | 84 kts | 85° |
| 2026-04-21 17:30 | 65.56902 | -37.22985 | 1044 ft | 82 kts | 83° |
| 2026-04-21 17:30 | 65.56964 | -37.21559 | 901 ft | 89 kts | 84° |
| 2026-04-21 17:30 | 65.57025 | -37.20168 | 767 ft | 78 kts | 84° |
| 2026-04-21 17:30 | 65.57080 | -37.18910 | 622 ft | 74 kts | 84° |
| 2026-04-21 17:31 | 65.57134 | -37.17676 | 495 ft | 77 kts | 84° |
| 2026-04-21 17:31 | 65.57192 | -37.16331 | 372 ft | 82 kts | 84° |
| 2026-04-21 17:31 | 65.57251 | -37.14962 | 252 ft | 82 kts | 85° |
| 2026-04-21 17:31 | 65.57305 | -37.13591 | 139 ft | 81 kts | 84° |
| 2026-04-21 17:32 | 65.57348 | -37.12733 | 121 ft | 69 kts | 83° |
| 2026-04-21 17:32 | 65.57372 | -37.11742 | 110 ft | 1 kts | 85° |
| 2026-04-21 17:32 | 65.57373 | -37.11739 | 110 ft | 2 kts | 25° |
| 2026-04-21 17:32 | 65.57364 | -37.11803 | 111 ft | 9 kts | 271° |
| 2026-04-21 17:33 | 65.57361 | -37.12139 | 113 ft | 30 kts | 265° |
| 2026-04-21 17:33 | 65.57331 | -37.12775 | 119 ft | 46 kts | 268° |
| 2026-04-21 17:33 | 65.57310 | -37.13411 | 118 ft | 22 kts | 275° |
| 2026-04-21 17:33 | 65.57383 | -37.13462 | 119 ft | 11 kts | 18° |
| 2026-04-21 17:34 | 65.57431 | -37.13411 | 122 ft | 0 kts | 348° |